Time,TemperatureF,DewpointF,PressureIn,WindDirection,WindDirectionDegrees,WindSpeedMPH,WindSpeedGustMPH,Humidity,HourlyPrecipIn,Conditions,Clouds,dailyrainin,SoftwareType,DateUTC
2013-08-13 00:12:00,83.0,75.0,30.03,ESE,121,2.0,2.0,77,0.00,,,0.00,,2013-08-13 04:12:00,
2013-08-13 00:23:00,83.0,75.0,30.02,ESE,122,2.0,3.0,77,0.00,,,0.00,,2013-08-13 04:23:00,
2013-08-13 00:53:00,83.0,75.0,30.02,SE,135,2.0,2.0,77,0.00,,,0.00,,2013-08-13 04:53:00,
2013-08-13 01:12:00,83.0,75.0,30.03,NE,56,2.0,2.0,77,0.00,,,0.00,,2013-08-13 05:12:00,
2013-08-13 01:21:00,84.0,76.0,30.03,East,83,1.0,2.0,76,0.00,,,0.00,,2013-08-13 05:21:00,
2013-08-13 01:52:00,83.0,76.0,30.01,NE,55,1.0,1.0,80,0.00,,,0.00,,2013-08-13 05:52:00,
2013-08-13 02:21:00,83.0,76.0,30.01,East,84,3.0,3.0,80,0.00,,,0.00,,2013-08-13 06:21:00,
2013-08-13 02:52:00,83.0,76.0,30.00,NE,46,2.0,2.0,79,0.00,,,0.00,,2013-08-13 06:52:00,
2013-08-13 03:21:00,82.0,75.0,29.99,East,101,3.0,3.0,80,0.00,,,0.00,,2013-08-13 07:21:00,
2013-08-13 03:52:00,82.0,75.0,29.99,NE,55,1.0,0.0,79,0.00,,,0.00,,2013-08-13 07:52:00,
2013-08-13 04:22:00,82.0,76.0,29.98,NE,38,1.0,0.0,81,0.00,,,0.00,,2013-08-13 08:22:00,
2013-08-13 04:52:00,81.0,75.0,29.98,NE,38,1.0,1.0,82,0.00,,,0.00,,2013-08-13 08:52:00,
2013-08-13 05:22:00,81.0,75.0,29.99,ENE,76,0.0,1.0,82,0.00,,,0.00,,2013-08-13 09:22:00,
2013-08-13 05:53:00,81.0,75.0,29.98,NE,44,0.0,0.0,82,0.00,,,0.00,,2013-08-13 09:53:00,
2013-08-13 06:23:00,81.0,75.0,29.99,ENE,70,2.0,0.0,82,0.00,,,0.00,,2013-08-13 10:23:00,
2013-08-13 06:53:00,81.0,75.0,29.99,ENE,73,0.0,0.0,83,0.00,,,0.00,,2013-08-13 10:53:00,
2013-08-13 07:22:00,81.0,75.0,30.00,SE,134,2.0,2.0,82,0.00,,,0.00,,2013-08-13 11:22:00,
2013-08-13 07:52:00,82.0,76.0,30.00,SE,143,3.0,3.0,81,0.00,,,0.00,,2013-08-13 11:52:00,
2013-08-13 08:21:00,83.0,75.0,30.00,East,89,2.0,2.0,77,0.00,,,0.00,,2013-08-13 12:21:00,
2013-08-13 08:52:00,85.0,76.0,30.00,SSW,203,3.0,4.0,74,0.00,,,0.00,,2013-08-13 12:52:00,
2013-08-13 09:22:00,85.0,75.0,30.00,SSE,158,4.0,4.0,71,0.00,,,0.00,,2013-08-13 13:22:00,
2013-08-13 09:52:00,86.0,75.0,30.01,SE,141,4.0,4.0,70,0.00,,,0.00,,2013-08-13 13:52:00,
2013-08-13 10:22:00,87.0,75.0,30.01,SSE,166,7.0,7.0,67,0.00,,,0.00,,2013-08-13 14:22:00,
2013-08-13 10:52:00,87.0,75.0,30.01,SSE,148,6.0,6.0,68,0.00,,,0.00,,2013-08-13 14:52:00,
2013-08-13 11:22:00,88.0,73.0,30.01,South,173,4.0,7.0,62,0.00,,,0.00,,2013-08-13 15:22:00,
2013-08-13 11:54:00,88.0,74.0,30.01,SE,127,6.0,6.0,63,0.00,,,0.00,,2013-08-13 15:54:00,
2013-08-13 12:23:00,89.0,73.0,30.01,SSE,160,5.0,5.0,59,0.00,,,0.00,,2013-08-13 16:23:00,
2013-08-13 12:54:00,90.0,71.0,30.01,South,174,5.0,5.0,54,0.00,,,0.00,,2013-08-13 16:54:00,
2013-08-13 13:27:00,90.0,69.0,30.00,SSW,198,5.0,5.0,51,0.00,,,0.00,,2013-08-13 17:27:00,
2013-08-13 13:46:00,-999.0,-99.9,29.99,ESE,120,5.0,9.0,-999,0.00,,,0.00,,2013-08-13 17:46:00,
2013-08-13 13:56:00,89.0,71.0,29.99,ESE,120,5.0,9.0,56,0.00,,,0.00,,2013-08-13 17:56:00,
2013-08-13 14:25:00,90.0,71.0,29.99,SE,145,5.0,5.0,54,0.00,,,0.00,,2013-08-13 18:25:00,
2013-08-13 14:56:00,89.0,70.0,29.99,ESE,108,8.0,8.0,54,0.00,,,0.00,,2013-08-13 18:56:00,
2013-08-13 15:25:00,89.0,72.0,29.98,ESE,121,7.0,8.0,58,0.00,,,0.00,,2013-08-13 19:25:00,
2013-08-13 15:55:00,88.0,73.0,29.97,ESE,108,6.0,11.0,62,0.00,,,0.00,,2013-08-13 19:55:00,
2013-08-13 16:22:00,89.0,74.0,29.96,SE,139,5.0,5.0,62,0.00,,,0.00,,2013-08-13 20:22:00,
2013-08-13 16:53:00,88.0,72.0,29.95,SSE,166,4.0,4.0,60,0.00,,,0.00,,2013-08-13 20:53:00,
2013-08-13 17:24:00,88.0,73.0,29.95,South,187,7.0,7.0,61,0.00,,,0.00,,2013-08-13 21:24:00,
2013-08-13 17:54:00,87.0,75.0,29.95,SE,146,7.0,7.0,67,0.00,,,0.00,,2013-08-13 21:54:00,
2013-08-13 18:22:00,87.0,74.0,29.95,SSE,160,5.0,5.0,65,0.00,,,0.00,,2013-08-13 22:22:00,
2013-08-13 18:57:00,86.0,74.0,29.94,SSE,167,6.0,6.0,67,0.00,,,0.00,,2013-08-13 22:57:00,
2013-08-13 19:26:00,85.0,75.0,29.94,South,180,5.0,5.0,71,0.00,,,0.00,,2013-08-13 23:26:00,
2013-08-13 19:57:00,85.0,75.0,29.94,South,187,3.0,7.0,71,0.00,,,0.00,,2013-08-13 23:57:00,
2013-08-13 20:11:00,84.0,74.0,29.95,SSW,208,3.0,8.0,72,0.00,,,0.00,,2013-08-14 00:11:00,
2013-08-13 20:22:00,84.0,74.0,29.95,SSE,160,5.0,5.0,72,0.00,,,0.00,,2013-08-14 00:22:00,
2013-08-13 20:42:00,84.0,74.0,29.96,South,183,4.0,4.0,72,0.00,,,0.00,,2013-08-14 00:42:00,
2013-08-13 20:52:00,84.0,74.0,29.97,ESE,122,3.0,3.0,72,0.00,,,0.00,,2013-08-14 00:52:00,
2013-08-13 21:21:00,84.0,74.0,29.98,SW,217,4.0,5.0,72,0.00,,,0.00,,2013-08-14 01:21:00,
2013-08-13 21:52:00,84.0,73.0,29.99,SSE,152,3.0,3.0,70,0.00,,,0.00,,2013-08-14 01:52:00,
2013-08-13 22:22:00,84.0,74.0,29.99,South,191,3.0,3.0,71,0.00,,,0.00,,2013-08-14 02:22:00,
2013-08-13 22:52:00,83.0,73.0,29.99,SSW,197,1.0,3.0,73,0.00,,,0.00,,2013-08-14 02:52:00,
2013-08-13 23:22:00,83.0,74.0,30.00,South,183,2.0,4.0,75,0.00,,,0.00,,2013-08-14 03:22:00,
2013-08-13 23:43:00,83.0,75.0,30.00,SE,129,2.0,2.0,76,0.00,,,0.00,,2013-08-14 03:43:00,
2013-08-13 23:53:00,83.0,75.0,30.00,SSW,210,0.0,3.0,76,0.00,,,0.00,,2013-08-14 03:53:00,